createdAt,value
2022-12-19T00:01:07.634Z,93.61
2022-12-19T00:06:14.649Z,93.61
2022-12-19T00:11:22.193Z,93.56
2022-12-19T00:16:30.213Z,93.54
2022-12-19T00:21:36.642Z,93.52
2022-12-19T00:26:42.526Z,93.59
2022-12-19T00:31:48.273Z,93.70
2022-12-19T00:36:54.411Z,93.70
2022-12-19T00:42:00.486Z,93.68
2022-12-19T00:47:06.420Z,93.73
2022-12-19T00:52:12.446Z,93.63
2022-12-19T00:57:18.191Z,93.14
2022-12-19T01:02:24.201Z,93.08
2022-12-19T01:07:30.582Z,93.10
2022-12-19T01:12:47.629Z,93.25
2022-12-19T01:17:53.873Z,93.37
2022-12-19T01:23:00.387Z,93.58
2022-12-19T01:28:08.238Z,93.20
2022-12-19T01:33:17.798Z,93.41
2022-12-19T01:38:23.769Z,93.32
2022-12-19T01:43:32.062Z,93.39
2022-12-19T01:48:43.067Z,93.36
2022-12-19T01:53:54.044Z,93.12
2022-12-19T01:59:06.554Z,93.21
2022-12-19T02:04:16.599Z,93.29
2022-12-19T02:09:26.095Z,93.38
2022-12-19T02:14:32.551Z,93.10
2022-12-19T02:20:20.889Z,93.11
2022-12-19T02:25:49.260Z,93.40
2022-12-19T02:31:13.808Z,93.29
2022-12-19T02:36:32.965Z,93.08
2022-12-19T02:41:50.400Z,93.19
2022-12-19T02:47:01.204Z,93.42
2022-12-19T02:52:28.038Z,93.60
2022-12-19T02:57:42.002Z,93.24
2022-12-19T03:03:01.115Z,93.15
2022-12-19T03:08:12.753Z,93.20
2022-12-19T03:13:21.888Z,93.23
2022-12-19T03:18:28.259Z,93.08
2022-12-19T03:23:34.686Z,92.65
2022-12-19T03:28:46.946Z,92.54
2022-12-19T03:33:58.716Z,92.50
2022-12-19T03:39:08.928Z,92.59
2022-12-19T03:44:17.336Z,92.59
2022-12-19T03:49:23.350Z,92.65
2022-12-19T03:54:35.033Z,92.68
2022-12-19T03:59:45.451Z,92.38
2022-12-19T04:04:52.638Z,92.34
2022-12-19T04:10:02.683Z,92.32
2022-12-19T04:15:14.045Z,92.28
2022-12-19T04:20:22.331Z,92.15
2022-12-19T04:25:31.213Z,92.20
2022-12-19T04:30:40.162Z,92.34
2022-12-19T04:35:46.062Z,92.31
2022-12-19T04:40:51.859Z,92.40
2022-12-19T04:45:57.984Z,92.50
2022-12-19T04:51:04.101Z,92.61
2022-12-19T04:56:11.269Z,92.66
2022-12-19T05:01:18.608Z,92.73
2022-12-19T05:06:24.717Z,92.73
2022-12-19T05:11:30.652Z,92.97
2022-12-19T05:16:36.369Z,92.88
2022-12-19T05:21:42.495Z,92.90
2022-12-19T05:26:49.599Z,92.83
2022-12-19T05:31:55.921Z,92.75
2022-12-19T05:37:03.642Z,92.82
2022-12-19T05:42:12.515Z,92.68
2022-12-19T05:47:21.260Z,92.59
2022-12-19T05:52:26.984Z,92.61
2022-12-19T05:57:33.229Z,92.54
2022-12-19T06:02:39.091Z,92.43
2022-12-19T06:07:46.563Z,92.55
2022-12-19T06:12:53.045Z,92.62
2022-12-19T06:17:59.508Z,92.73
2022-12-19T06:23:05.564Z,92.80
2022-12-19T06:28:11.799Z,92.68
2022-12-19T06:33:17.782Z,92.63
2022-12-19T06:38:23.715Z,92.61
2022-12-19T06:43:29.878Z,92.43
2022-12-19T06:48:36.566Z,92.35
2022-12-19T06:53:42.730Z,92.23
2022-12-19T06:58:49.245Z,92.07
2022-12-19T07:03:55.756Z,91.87
2022-12-19T07:09:01.758Z,91.60
2022-12-19T07:14:07.751Z,91.45
2022-12-19T07:19:17.089Z,91.31
2022-12-19T07:24:23.025Z,91.01
2022-12-19T07:29:29.023Z,90.82
2022-12-19T07:34:34.989Z,90.61
2022-12-19T07:39:41.041Z,90.39
2022-12-19T07:44:46.782Z,90.13
2022-12-19T07:49:53.162Z,90.00
2022-12-19T07:54:59.714Z,89.84
2022-12-19T08:00:07.018Z,89.75
2022-12-19T08:05:19.046Z,89.79
2022-12-19T08:10:24.974Z,89.46
2022-12-19T08:15:31.183Z,89.35
2022-12-19T08:20:37.116Z,89.28
2022-12-19T08:25:42.939Z,89.08
2022-12-19T08:30:49.230Z,88.80
2022-12-19T08:35:55.151Z,88.54
2022-12-19T08:45:56.506Z,88.40
2022-12-19T08:51:03.771Z,88.51
2022-12-19T08:56:13.489Z,88.44
2022-12-19T09:01:20.927Z,88.33
2022-12-19T09:06:27.203Z,88.51
2022-12-19T09:11:33.535Z,88.10
2022-12-19T09:16:42.077Z,87.16
2022-12-19T09:21:48.050Z,86.64
2022-12-19T09:26:53.700Z,86.03
2022-12-19T09:31:59.380Z,85.06
2022-12-19T09:37:05.465Z,84.05
2022-12-19T09:42:31.082Z,83.65
2022-12-19T09:47:42.586Z,82.72
2022-12-19T09:52:57.723Z,80.11
2022-12-19T09:58:11.476Z,79.29
2022-12-19T10:03:22.166Z,78.56
2022-12-19T10:08:32.070Z,78.74
2022-12-19T10:14:00.742Z,78.09
2022-12-19T10:19:09.196Z,77.35
2022-12-19T10:24:35.945Z,78.61
2022-12-19T10:29:53.967Z,78.38
2022-12-19T10:35:00.603Z,78.09
2022-12-19T10:40:27.349Z,78.24
2022-12-19T10:45:39.460Z,78.21
2022-12-19T10:50:47.273Z,76.80
2022-12-19T10:55:55.155Z,75.82
2022-12-19T11:01:13.524Z,75.88
2022-12-19T11:06:47.526Z,75.28
2022-12-19T11:15:50.428Z,73.35
2022-12-19T11:24:43.959Z,72.60
2022-12-19T11:30:47.111Z,72.44
2022-12-19T11:30:49.027Z,71.18
2022-12-19T11:34:07.461Z,70.78
2022-12-19T11:39:21.422Z,71.02
2022-12-19T11:44:44.043Z,70.79
2022-12-19T11:50:00.172Z,71.30
2022-12-19T11:55:15.782Z,69.86
2022-12-19T12:00:24.530Z,70.95
2022-12-19T12:05:46.416Z,71.09
2022-12-19T12:16:13.453Z,71.04
2022-12-19T12:26:30.555Z,71.34
2022-12-19T12:31:13.774Z,71.32
2022-12-19T12:31:54.269Z,70.81
2022-12-19T12:35:34.426Z,70.67
2022-12-19T12:39:16.007Z,71.78
2022-12-19T12:44:33.367Z,71.62
2022-12-19T12:49:44.226Z,71.35
2022-12-19T12:54:53.700Z,72.94
2022-12-19T13:00:20.875Z,73.34
2022-12-19T13:05:46.233Z,73.71
2022-12-19T13:10:58.059Z,74.37
2022-12-19T13:16:41.434Z,75.22
2022-12-19T13:22:15.781Z,75.88
2022-12-19T13:27:48.014Z,76.44
2022-12-19T13:33:17.069Z,76.97
2022-12-19T13:39:48.575Z,77.58
2022-12-19T13:43:58.554Z,77.96
2022-12-19T13:49:07.007Z,78.58
2022-12-19T13:54:28.481Z,79.20
2022-12-19T13:59:40.347Z,79.80
2022-12-19T14:04:51.514Z,80.44
2022-12-19T14:11:27.639Z,80.89
2022-12-19T14:15:28.600Z,81.27
2022-12-19T14:22:04.658Z,81.58
2022-12-19T14:28:21.102Z,81.95
2022-12-19T14:31:27.678Z,82.23
2022-12-19T14:36:35.975Z,82.45
2022-12-19T14:42:04.149Z,82.64
2022-12-19T14:54:07.404Z,82.89
2022-12-19T14:54:28.465Z,83.11
2022-12-19T14:58:55.503Z,83.48
2022-12-19T15:04:48.951Z,83.93
2022-12-19T15:11:00.517Z,84.39
2022-12-19T15:14:59.012Z,84.96
2022-12-19T15:20:09.190Z,85.53
2022-12-19T15:25:44.007Z,85.88
2022-12-19T15:30:48.193Z,86.21
2022-12-19T15:35:55.222Z,86.24
2022-12-19T15:41:01.204Z,86.20
2022-12-19T15:46:07.422Z,86.15
2022-12-19T15:51:14.940Z,86.25
2022-12-19T15:56:28.780Z,86.26
2022-12-19T16:01:34.637Z,86.37
2022-12-19T16:06:40.448Z,86.67
2022-12-19T16:11:46.387Z,86.89
2022-12-19T16:16:54.812Z,87.14
2022-12-19T16:22:01.615Z,87.26
2022-12-19T16:27:11.460Z,87.27
2022-12-19T16:32:18.253Z,87.36
2022-12-19T16:37:31.813Z,87.41
2022-12-19T16:42:39.401Z,87.56
2022-12-19T16:47:45.196Z,87.69
2022-12-19T16:52:51.323Z,87.88
2022-12-19T16:57:58.931Z,88.00
2022-12-19T17:03:09.437Z,88.18
2022-12-19T17:08:15.603Z,88.39
2022-12-19T17:13:24.018Z,88.47
2022-12-19T17:18:33.265Z,88.60
2022-12-19T17:23:38.926Z,88.72
2022-12-19T17:28:48.126Z,88.83
2022-12-19T17:33:58.178Z,88.73
2022-12-19T17:39:11.472Z,88.75
2022-12-19T17:44:17.706Z,88.76
2022-12-19T17:49:27.506Z,88.69
2022-12-19T17:54:33.381Z,88.60
2022-12-19T17:59:39.034Z,88.58
2022-12-19T18:04:44.755Z,88.57
2022-12-19T18:09:50.474Z,88.58
2022-12-19T18:14:56.190Z,88.60
2022-12-19T18:20:03.215Z,88.40
2022-12-19T18:25:18.340Z,88.50
2022-12-19T18:30:25.838Z,88.54
2022-12-19T18:35:35.870Z,88.37
2022-12-19T18:40:42.843Z,88.32
2022-12-19T18:45:51.656Z,88.34
2022-12-19T18:51:00.640Z,88.30
2022-12-19T18:56:07.548Z,88.20
2022-12-19T19:01:16.395Z,88.13
2022-12-19T19:06:25.863Z,87.96
2022-12-19T19:11:31.656Z,88.14
2022-12-19T19:16:38.394Z,88.12
2022-12-19T19:21:44.649Z,88.26
2022-12-19T19:26:50.460Z,88.08
2022-12-19T19:31:56.263Z,87.91
2022-12-19T19:37:14.729Z,87.92
2022-12-19T19:42:20.459Z,88.02
2022-12-19T19:47:32.345Z,87.98
2022-12-19T19:52:41.415Z,87.88
2022-12-19T19:57:53.275Z,87.94
2022-12-19T20:03:06.273Z,87.95
2022-12-19T20:08:29.000Z,87.82
2022-12-19T20:13:45.107Z,87.85
2022-12-19T20:18:52.820Z,88.07
2022-12-19T20:23:58.903Z,88.08
2022-12-19T20:29:06.880Z,88.26
2022-12-19T20:34:12.580Z,88.20
2022-12-19T20:39:22.326Z,87.98
2022-12-19T20:44:28.397Z,88.06
2022-12-19T20:49:34.510Z,88.28
2022-12-19T20:54:40.460Z,88.22
2022-12-19T20:59:46.258Z,87.98
2022-12-19T21:04:52.834Z,87.93
2022-12-19T21:09:58.500Z,87.93
2022-12-19T21:15:04.848Z,87.83
2022-12-19T21:20:11.995Z,87.81
2022-12-19T21:25:17.887Z,87.82
2022-12-19T21:30:23.621Z,87.69
2022-12-19T21:35:29.647Z,87.68
2022-12-19T21:40:37.074Z,87.61
2022-12-19T21:45:42.783Z,87.73
2022-12-19T21:50:56.616Z,87.59
2022-12-19T21:56:08.479Z,87.63
2022-12-19T22:01:15.695Z,87.74
2022-12-19T22:06:28.407Z,87.91
2022-12-19T22:11:35.766Z,88.17
2022-12-19T22:16:42.699Z,88.57
2022-12-19T22:21:49.122Z,88.63
2022-12-19T22:26:54.718Z,88.80
2022-12-19T22:32:00.584Z,88.90
2022-12-19T22:37:06.317Z,89.15
2022-12-19T22:42:11.968Z,89.65
2022-12-19T22:47:17.807Z,90.02
2022-12-19T22:52:24.768Z,90.53
2022-12-19T22:57:30.572Z,90.79
2022-12-19T23:02:38.367Z,90.97
2022-12-19T23:07:45.414Z,91.21
2022-12-19T23:12:51.375Z,91.27
2022-12-19T23:17:57.177Z,91.39
2022-12-19T23:23:03.096Z,91.37
2022-12-19T23:28:09.508Z,91.35
2022-12-19T23:33:15.233Z,91.46
2022-12-19T23:38:21.019Z,91.72
2022-12-19T23:43:26.781Z,91.73
2022-12-19T23:48:32.754Z,91.83
2022-12-19T23:53:38.483Z,92.19
2022-12-19T23:58:45.723Z,92.48
